Time;durP1;ratioP1;P1;durP2;ratioP2;P2;SDS_P1;SDS_P2;PMS_P1;PMS_P2;Temp;Humidity;BMP_temperature;BMP_pressure;BME280_temperature;BME280_humidity;BME280_pressure;Samples;Min_cycle;Max_cycle;Signal;HPM_P1;HPM_P2
2023/05/25 00:00:04;;;;;;;19.48;9.32;;;11.00;86.90;;;;;;5034531;28;20044;-79
2023/05/25 00:02:32;;;;;;;19.20;9.02;;;11.00;86.90;;;;;;5034847;28;20048;-78
2023/05/25 00:04:59;;;;;;;16.15;8.43;;;11.00;86.90;;;;;;5018365;28;20498;-79
2023/05/25 00:07:25;;;;;;;13.32;7.60;;;11.00;86.90;;;;;;5034439;28;20038;-79
2023/05/25 00:09:51;;;;;;;12.00;7.50;;;10.90;86.90;;;;;;5034871;28;20044;-79
2023/05/25 00:12:17;;;;;;;17.40;8.20;;;10.90;86.90;;;;;;5034571;28;20843;-79
2023/05/25 00:14:42;;;;;;;17.52;8.77;;;10.90;86.80;;;;;;5018189;28;20038;-78
2023/05/25 00:17:08;;;;;;;18.42;8.68;;;10.90;87.00;;;;;;5017763;28;20045;-79
2023/05/25 00:19:34;;;;;;;15.93;9.05;;;10.90;86.90;;;;;;5034666;28;20050;-78
2023/05/25 00:22:03;;;;;;;15.77;8.07;;;10.80;86.90;;;;;;5034063;28;20490;-79
2023/05/25 00:24:29;;;;;;;19.17;8.43;;;10.90;86.60;;;;;;5034307;28;20041;-79
2023/05/25 00:26:56;;;;;;;15.88;7.75;;;10.80;86.80;;;;;;5034420;28;20033;-78
2023/05/25 00:29:22;;;;;;;15.02;8.02;;;10.70;86.70;;;;;;5034248;28;20044;-79
2023/05/25 00:31:49;;;;;;;14.32;7.50;;;10.80;86.70;;;;;;5018176;28;20037;-78
2023/05/25 00:34:15;;;;;;;14.07;7.60;;;10.70;86.80;;;;;;5017666;28;20042;-78
2023/05/25 00:36:47;;;;;;;17.92;7.95;;;10.70;86.90;;;;;;5017549;28;20087;-79
2023/05/25 00:39:17;;;;;;;19.92;8.85;;;10.60;87.10;;;;;;5017756;28;20362;-79
2023/05/25 00:41:47;;;;;;;14.65;8.20;;;10.60;87.10;;;;;;5034160;28;20045;-79
2023/05/25 00:44:14;;;;;;;17.20;7.82;;;10.60;87.30;;;;;;5033743;28;20045;-79
2023/05/25 00:46:48;;;;;;;13.77;8.40;;;10.50;87.40;;;;;;5034272;28;20043;-78
2023/05/25 00:49:16;;;;;;;15.10;7.95;;;10.50;87.40;;;;;;5034168;28;20128;-79
2023/05/25 00:51:45;;;;;;;16.77;9.02;;;10.50;87.50;;;;;;5033703;28;20041;-79
2023/05/25 00:54:13;;;;;;;17.75;8.13;;;10.50;87.30;;;;;;5017016;28;20084;-78
2023/05/25 00:56:42;;;;;;;20.77;9.07;;;10.50;87.30;;;;;;5033555;28;20052;-78
2023/05/25 00:59:10;;;;;;;23.38;9.73;;;10.50;87.50;;;;;;5033042;28;20520;-79
2023/05/25 01:01:39;;;;;;;16.73;9.50;;;10.50;87.50;;;;;;5016280;28;20057;-78
2023/05/25 01:04:08;;;;;;;18.05;9.95;;;10.50;87.50;;;;;;5033087;28;20045;-79
2023/05/25 01:06:35;;;;;;;16.00;9.15;;;10.50;87.70;;;;;;5033003;28;20045;-78
2023/05/25 01:09:03;;;;;;;20.95;10.75;;;10.50;87.70;;;;;;5032817;28;20128;-78
2023/05/25 01:11:35;;;;;;;20.75;9.50;;;10.50;87.70;;;;;;5032808;28;20049;-77
2023/05/25 01:14:01;;;;;;;16.67;8.65;;;10.50;87.70;;;;;;5032739;28;20050;-78
2023/05/25 01:16:28;;;;;;;14.98;8.77;;;10.50;87.90;;;;;;5032749;28;20037;-78
2023/05/25 01:18:55;;;;;;;13.80;9.23;;;10.50;87.90;;;;;;5032915;28;20386;-76
2023/05/25 01:21:46;;;;;;;15.20;8.52;;;10.50;87.70;;;;;;5033355;28;20422;-78
2023/05/25 01:24:25;;;;;;;17.15;9.48;;;10.40;87.70;;;;;;5032637;28;20543;-77
2023/05/25 01:27:01;;;;;;;17.50;8.75;;;10.40;87.90;;;;;;5032630;28;20120;-78
2023/05/25 01:29:28;;;;;;;16.73;8.90;;;10.40;87.80;;;;;;5032590;28;20049;-77
2023/05/25 01:31:57;;;;;;;21.52;10.25;;;10.40;87.70;;;;;;5033263;28;20052;-78
2023/05/25 01:34:24;;;;;;;17.35;9.15;;;10.30;87.70;;;;;;5033657;28;20033;-76
2023/05/25 01:36:50;;;;;;;19.85;8.88;;;10.30;87.70;;;;;;5032848;28;20060;-78
2023/05/25 01:39:17;;;;;;;18.75;9.90;;;10.30;87.60;;;;;;5016508;28;20208;-78
2023/05/25 01:41:42;;;;;;;15.95;8.27;;;10.30;87.80;;;;;;5033217;28;20049;-77
2023/05/25 01:44:08;;;;;;;20.40;9.18;;;10.20;87.90;;;;;;5016957;28;20041;-78
2023/05/25 01:46:39;;;;;;;17.20;7.88;;;10.30;87.90;;;;;;5032822;28;20041;-78
2023/05/25 01:49:26;;;;;;;16.88;9.30;;;10.30;87.90;;;;;;5032797;28;20049;-77
2023/05/25 01:52:06;;;;;;;14.32;8.68;;;10.20;88.10;;;;;;5032915;28;20099;-78
2023/05/25 01:54:37;;;;;;;17.50;9.07;;;10.20;88.30;;;;;;5033087;28;20052;-77
2023/05/25 01:57:09;;;;;;;13.95;9.18;;;10.10;88.40;;;;;;5032420;28;20058;-77
2023/05/25 01:59:36;;;;;;;19.30;8.15;;;10.10;88.40;;;;;;5032690;28;20054;-77
2023/05/25 02:02:03;;;;;;;17.58;8.15;;;10.10;88.50;;;;;;5032730;28;20037;-78
2023/05/25 02:04:29;;;;;;;15.23;8.45;;;10.10;88.50;;;;;;5015738;28;20398;-77
2023/05/25 02:06:55;;;;;;;14.73;9.07;;;10.10;88.50;;;;;;5016548;28;20397;-78
2023/05/25 02:09:21;;;;;;;12.68;7.50;;;10.10;88.50;;;;;;5033229;28;20037;-79
2023/05/25 02:11:47;;;;;;;18.10;8.10;;;10.10;88.60;;;;;;5048787;28;20048;-78
2023/05/25 02:14:14;;;;;;;18.75;8.50;;;10.10;88.60;;;;;;5034579;28;20076;-77
2023/05/25 02:16:39;;;;;;;21.70;9.15;;;10.10;88.60;;;;;;5019414;28;20033;-78
2023/05/25 02:19:05;;;;;;;19.95;9.68;;;10.10;88.60;;;;;;5035856;28;20038;-77
2023/05/25 02:21:31;;;;;;;22.65;9.40;;;10.10;88.50;;;;;;5036264;28;20041;-77
2023/05/25 02:23:57;;;;;;;18.50;9.20;;;10.10;88.60;;;;;;5036331;28;20045;-78
2023/05/25 02:26:23;;;;;;;17.38;9.60;;;10.00;88.70;;;;;;5036271;28;20041;-78
2023/05/25 02:28:50;;;;;;;19.60;9.43;;;10.10;88.80;;;;;;5036631;28;20090;-78
2023/05/25 02:31:16;;;;;;;22.80;10.63;;;10.00;88.90;;;;;;5036284;28;20531;-78
2023/05/25 02:33:42;;;;;;;17.48;9.35;;;10.00;88.90;;;;;;5036388;28;20084;-77
2023/05/25 02:36:07;;;;;;;24.10;11.43;;;10.00;88.60;;;;;;5036576;28;20037;-79
2023/05/25 02:38:33;;;;;;;23.52;12.45;;;10.10;88.60;;;;;;5036332;28;20474;-77
2023/05/25 02:40:59;;;;;;;24.35;11.90;;;10.10;88.60;;;;;;5019592;28;20041;-78
2023/05/25 02:43:24;;;;;;;18.58;10.93;;;10.10;88.70;;;;;;5036308;28;20111;-79
2023/05/25 02:45:50;;;;;;;24.20;11.48;;;10.10;88.90;;;;;;5036618;28;20470;-77
2023/05/25 02:48:16;;;;;;;29.73;11.35;;;10.10;89.00;;;;;;5035668;28;20485;-79
2023/05/25 02:50:41;;;;;;;19.17;10.45;;;10.10;88.90;;;;;;5036004;28;20383;-78
2023/05/25 02:53:07;;;;;;;21.42;10.93;;;10.10;89.10;;;;;;5019377;28;20517;-77
2023/05/25 02:55:33;;;;;;;17.38;9.82;;;10.10;89.10;;;;;;5035753;28;20084;-79
2023/05/25 02:57:59;;;;;;;23.95;11.68;;;10.00;89.10;;;;;;5019194;28;20037;-78
2023/05/25 03:00:25;;;;;;;21.17;11.52;;;10.00;89.20;;;;;;5035409;28;20049;-78
2023/05/25 03:02:51;;;;;;;24.27;12.98;;;10.00;89.20;;;;;;5035589;28;20042;-78
2023/05/25 03:05:17;;;;;;;21.77;12.18;;;10.00;89.10;;;;;;5018727;28;20076;-79
2023/05/25 03:07:43;;;;;;;19.10;11.73;;;10.00;89.00;;;;;;5035341;28;20071;-77
2023/05/25 03:10:10;;;;;;;18.52;11.90;;;9.90;89.20;;;;;;5034994;28;20045;-78
2023/05/25 03:12:36;;;;;;;21.00;12.35;;;9.80;89.20;;;;;;5035282;28;20052;-78
2023/05/25 03:15:01;;;;;;;21.33;12.77;;;9.80;89.20;;;;;;5034547;28;20481;-78
2023/05/25 03:17:27;;;;;;;21.92;12.48;;;9.80;89.30;;;;;;5034931;28;20041;-79
2023/05/25 03:19:53;;;;;;;21.20;11.75;;;9.70;89.30;;;;;;5034363;28;20452;-78
2023/05/25 03:22:18;;;;;;;23.58;12.00;;;9.70;89.30;;;;;;5017695;28;20038;-78
2023/05/25 03:24:45;;;;;;;20.63;12.20;;;9.70;89.30;;;;;;5034639;28;20045;-78
2023/05/25 03:27:11;;;;;;;18.73;12.25;;;9.60;89.30;;;;;;5017902;28;20045;-78
2023/05/25 03:29:36;;;;;;;17.92;11.40;;;9.60;89.30;;;;;;5051373;28;20124;-78
2023/05/25 03:32:02;;;;;;;21.48;12.25;;;9.60;89.30;;;;;;5018315;28;20093;-78
2023/05/25 03:34:28;;;;;;;22.50;12.32;;;9.60;89.30;;;;;;5034794;28;20045;-77
2023/05/25 03:36:54;;;;;;;18.88;12.30;;;9.60;89.30;;;;;;5019231;28;20033;-78
2023/05/25 03:39:21;;;;;;;16.55;12.55;;;9.50;89.30;;;;;;5034484;28;20445;-79
2023/05/25 03:41:47;;;;;;;20.83;12.65;;;9.60;89.30;;;;;;5018306;28;20045;-79
2023/05/25 03:44:12;;;;;;;17.35;11.63;;;9.50;89.30;;;;;;5034478;28;20038;-77
2023/05/25 03:46:39;;;;;;;21.73;12.05;;;9.60;89.30;;;;;;5034809;28;20087;-77
2023/05/25 03:49:05;;;;;;;23.50;12.93;;;9.50;89.30;;;;;;5034397;28;20053;-79
2023/05/25 03:51:31;;;;;;;20.38;12.88;;;9.50;89.30;;;;;;5034126;28;20102;-78
2023/05/25 03:53:56;;;;;;;19.10;11.93;;;9.50;89.30;;;;;;5034612;28;20041;-79
2023/05/25 03:56:22;;;;;;;20.65;12.18;;;9.50;89.30;;;;;;5034372;28;20061;-79
2023/05/25 03:58:48;;;;;;;24.70;13.75;;;9.50;89.30;;;;;;5034359;28;20128;-79
2023/05/25 04:01:15;;;;;;;23.73;13.13;;;9.50;89.40;;;;;;5017988;28;20045;-79
2023/05/25 04:03:41;;;;;;;18.83;12.23;;;9.60;89.50;;;;;;5034717;28;20045;-79
2023/05/25 04:06:07;;;;;;;15.52;11.57;;;9.60;89.60;;;;;;5034651;28;20103;-78
2023/05/25 04:08:33;;;;;;;19.20;12.93;;;9.60;89.70;;;;;;5034795;28;20486;-78
2023/05/25 04:10:58;;;;;;;21.35;12.90;;;9.60;89.60;;;;;;5018020;28;20122;-77
2023/05/25 04:13:25;;;;;;;22.10;12.25;;;9.70;89.80;;;;;;5019193;28;20195;-78
2023/05/25 04:15:50;;;;;;;21.70;12.75;;;9.70;89.80;;;;;;5034877;28;20087;-79
2023/05/25 04:18:16;;;;;;;23.98;13.40;;;9.70;89.80;;;;;;5018183;28;20033;-78
2023/05/25 04:20:42;;;;;;;21.85;10.25;;;9.80;89.90;;;;;;5034654;28;20464;-80
2023/05/25 04:23:07;;;;;;;23.27;13.18;;;9.80;90.00;;;;;;5035081;28;20044;-79
2023/05/25 04:25:33;;;;;;;18.85;11.25;;;9.80;90.10;;;;;;5018002;28;20049;-79
2023/05/25 04:27:59;;;;;;;13.32;9.30;;;9.90;90.20;;;;;;5034664;28;20053;-79
2023/05/25 04:30:25;;;;;;;19.30;10.40;;;10.00;90.00;;;;;;5034506;28;20049;-82
2023/05/25 04:32:50;;;;;;;23.20;11.23;;;10.00;90.20;;;;;;5018172;28;20076;-80
2023/05/25 04:35:19;;;;;;;20.85;11.10;;;10.00;90.30;;;;;;5034279;28;20447;-80
2023/05/25 04:37:47;;;;;;;21.13;10.85;;;10.10;90.00;;;;;;5017058;28;20084;-78
2023/05/25 04:40:13;;;;;;;23.05;9.63;;;10.20;89.70;;;;;;5034337;28;20485;-79
2023/05/25 04:42:39;;;;;;;18.15;10.23;;;10.20;89.60;;;;;;5034386;28;20037;-80
2023/05/25 04:45:09;;;;;;;18.40;10.10;;;10.30;89.60;;;;;;5034079;28;20042;-79
2023/05/25 04:47:36;;;;;;;20.80;10.05;;;10.40;89.80;;;;;;4997970;28;20037;-78
2023/05/25 04:50:03;;;;;;;20.25;11.10;;;10.50;89.80;;;;;;5029835;28;20091;-78
2023/05/25 04:52:28;;;;;;;21.80;9.52;;;10.50;89.90;;;;;;5002629;28;20038;-79
2023/05/25 04:54:54;;;;;;;22.98;10.73;;;10.60;89.90;;;;;;4997670;28;20501;-78
2023/05/25 04:57:20;;;;;;;19.33;9.10;;;10.70;90.00;;;;;;5033564;28;20131;-78
2023/05/25 04:59:46;;;;;;;17.65;9.98;;;10.80;90.00;;;;;;5050453;28;20049;-78
2023/05/25 05:02:11;;;;;;;17.42;8.85;;;10.90;90.00;;;;;;5017333;28;20461;-77
2023/05/25 05:04:38;;;;;;;22.95;10.18;;;11.00;90.00;;;;;;5034427;28;20043;-77
2023/05/25 05:07:04;;;;;;;18.38;10.88;;;11.00;90.00;;;;;;5050257;28;20080;-77
2023/05/25 05:09:30;;;;;;;19.10;10.57;;;11.10;90.10;;;;;;5033700;28;20393;-78
2023/05/25 05:11:55;;;;;;;20.05;9.18;;;11.10;90.10;;;;;;5050225;28;20130;-77
2023/05/25 05:14:21;;;;;;;21.10;10.35;;;11.20;90.10;;;;;;5017302;28;20049;-76
2023/05/25 05:16:47;;;;;;;20.30;9.95;;;11.30;90.10;;;;;;5049921;28;20037;-78
2023/05/25 05:19:12;;;;;;;20.35;10.38;;;11.30;90.00;;;;;;5033041;28;20045;-78
2023/05/25 05:21:38;;;;;;;20.45;9.85;;;11.40;90.00;;;;;;5050118;28;20387;-78
2023/05/25 05:24:04;;;;;;;29.77;12.75;;;11.40;89.90;;;;;;5049894;28;20180;-78
2023/05/25 05:26:30;;;;;;;22.58;11.05;;;11.40;89.90;;;;;;5050077;28;20045;-77
2023/05/25 05:28:55;;;;;;;16.70;10.48;;;11.50;89.90;;;;;;5033212;28;20048;-78
2023/05/25 05:31:23;;;;;;;20.98;10.80;;;11.50;89.90;;;;;;5000385;28;20041;-78
2023/05/25 05:33:48;;;;;;;23.80;11.32;;;11.60;89.90;;;;;;5017091;28;20397;-78
2023/05/25 05:36:14;;;;;;;19.63;11.88;;;11.60;90.00;;;;;;5033052;28;20132;-77
2023/05/25 05:38:41;;;;;;;18.38;10.63;;;11.60;89.90;;;;;;5032844;28;20034;-78
2023/05/25 05:41:13;;;;;;;19.08;12.45;;;11.70;89.90;;;;;;5016565;28;20077;-78
2023/05/25 05:43:41;;;;;;;21.55;10.32;;;11.80;89.80;;;;;;5033075;28;20552;-78
2023/05/25 05:46:08;;;;;;;24.55;12.07;;;11.80;89.90;;;;;;5033095;28;20367;-78
2023/05/25 05:48:34;;;;;;;18.67;10.35;;;11.90;90.00;;;;;;5032654;28;20037;-77
2023/05/25 05:51:00;;;;;;;24.48;12.57;;;12.00;89.80;;;;;;5016499;28;20037;-78
2023/05/25 05:53:25;;;;;;;16.75;10.23;;;12.00;89.80;;;;;;5032674;28;20452;-78
2023/05/25 05:55:56;;;;;;;22.10;12.23;;;12.10;89.90;;;;;;4999936;28;20457;-77
2023/05/25 05:58:22;;;;;;;19.98;10.50;;;12.20;89.80;;;;;;5032943;28;20045;-79
2023/05/25 06:00:48;;;;;;;14.55;9.10;;;12.30;89.80;;;;;;5032982;28;20041;-78
2023/05/25 06:03:13;;;;;;;18.30;9.40;;;12.30;89.80;;;;;;5016699;28;20094;-79
2023/05/25 06:05:39;;;;;;;18.95;11.25;;;12.40;89.80;;;;;;5033145;28;20052;-79
2023/05/25 06:08:07;;;;;;;20.10;10.07;;;12.50;89.50;;;;;;5032678;28;20497;-79
2023/05/25 06:10:32;;;;;;;17.77;10.15;;;12.50;89.40;;;;;;5032974;28;20042;-78
2023/05/25 06:12:58;;;;;;;17.15;10.18;;;12.60;89.40;;;;;;5033190;28;20441;-79
2023/05/25 06:15:24;;;;;;;16.15;9.27;;;12.60;89.30;;;;;;5032703;28;20382;-77
2023/05/25 06:17:49;;;;;;;21.17;9.95;;;12.70;89.10;;;;;;5032889;28;20038;-78
2023/05/25 06:20:15;;;;;;;17.92;8.88;;;12.80;88.80;;;;;;5032889;28;20091;-78
2023/05/25 06:22:41;;;;;;;24.80;10.55;;;12.80;88.70;;;;;;5016251;28;20045;-77
2023/05/25 06:25:09;;;;;;;18.52;8.82;;;12.90;88.50;;;;;;5032929;28;20033;-78
2023/05/25 06:27:35;;;;;;;17.50;8.07;;;13.00;88.60;;;;;;5016515;28;20481;-78
2023/05/25 06:30:01;;;;;;;12.25;7.03;;;13.00;88.10;;;;;;5032660;28;20091;-79
2023/05/25 06:32:27;;;;;;;12.60;7.55;;;13.00;88.10;;;;;;5016226;28;20041;-78
2023/05/25 06:34:53;;;;;;;12.20;6.30;;;13.00;87.50;;;;;;5032816;28;20045;-79
2023/05/25 06:37:18;;;;;;;15.02;6.32;;;13.10;86.80;;;;;;5016366;28;20033;-77
2023/05/25 06:39:44;;;;;;;14.07;6.60;;;13.10;86.30;;;;;;5032559;28;20136;-78
2023/05/25 06:42:10;;;;;;;13.82;6.45;;;13.20;85.90;;;;;;5032445;28;20050;-77
2023/05/25 06:44:36;;;;;;;16.08;6.00;;;13.20;86.00;;;;;;5032578;28;20042;-78
2023/05/25 06:47:02;;;;;;;11.38;5.15;;;13.30;85.60;;;;;;5032207;28;20051;-79
2023/05/25 06:49:29;;;;;;;14.10;5.22;;;13.30;84.30;;;;;;5049037;28;20095;-79
2023/05/25 06:51:55;;;;;;;11.27;5.22;;;13.40;83.70;;;;;;5032366;28;20053;-78
2023/05/25 06:54:20;;;;;;;13.15;5.63;;;13.40;83.30;;;;;;5032559;28;20041;-78
2023/05/25 06:56:46;;;;;;;11.95;5.05;;;13.40;83.40;;;;;;5032326;28;20502;-77
2023/05/25 06:59:12;;;;;;;11.25;5.07;;;13.40;83.10;;;;;;5032786;28;20452;-78
2023/05/25 07:01:37;;;;;;;10.07;4.35;;;13.50;82.70;;;;;;5018989;28;20131;-78
2023/05/25 07:04:03;;;;;;;12.85;4.70;;;13.60;82.00;;;;;;5036078;28;20559;-78
2023/05/25 07:06:29;;;;;;;13.40;4.55;;;13.60;81.70;;;;;;5036401;28;20041;-77
2023/05/25 07:08:54;;;;;;;16.05;4.55;;;13.50;81.90;;;;;;5036030;28;20535;-78
2023/05/25 07:11:20;;;;;;;15.15;4.63;;;13.60;80.80;;;;;;5019338;28;20045;-78
2023/05/25 07:13:47;;;;;;;15.05;4.97;;;13.60;80.90;;;;;;5019541;28;20385;-78
2023/05/25 07:16:13;;;;;;;10.50;5.35;;;13.70;81.50;;;;;;5035782;28;20124;-78
2023/05/25 07:18:40;;;;;;;11.27;5.15;;;13.70;81.80;;;;;;5035535;28;20038;-78
2023/05/25 07:21:09;;;;;;;17.48;5.38;;;13.80;81.60;;;;;;5035963;28;20102;-77
2023/05/25 07:23:36;;;;;;;11.30;4.57;;;13.90;80.50;;;;;;5035594;28;20048;-78
2023/05/25 07:26:02;;;;;;;12.27;5.55;;;13.90;80.30;;;;;;5035363;28;20577;-78
2023/05/25 07:28:28;;;;;;;14.32;4.35;;;14.00;80.00;;;;;;5019134;28;20047;-77
2023/05/25 07:30:53;;;;;;;21.08;6.30;;;13.90;80.20;;;;;;5035173;28;20045;-76
2023/05/25 07:33:19;;;;;;;15.80;5.32;;;13.90;80.30;;;;;;5035279;28;20124;-79
2023/05/25 07:35:45;;;;;;;14.68;5.15;;;13.90;79.80;;;;;;5035827;28;20454;-79
2023/05/25 07:38:10;;;;;;;19.55;5.50;;;14.00;78.90;;;;;;5018868;28;20037;-79
2023/05/25 07:40:36;;;;;;;17.88;6.05;;;14.00;78.80;;;;;;5018633;28;20053;-79
2023/05/25 07:43:02;;;;;;;20.83;6.18;;;14.00;79.00;;;;;;5035922;28;20124;-79
2023/05/25 07:45:28;;;;;;;25.13;5.40;;;14.00;79.00;;;;;;5051691;28;20042;-79
2023/05/25 07:47:53;;;;;;;14.18;4.50;;;14.10;77.00;;;;;;5035455;28;20115;-78
2023/05/25 07:50:19;;;;;;;16.17;5.88;;;14.00;77.10;;;;;;5035656;28;20041;-79
2023/05/25 07:52:45;;;;;;;22.05;7.07;;;14.10;77.50;;;;;;5035425;28;20379;-80
2023/05/25 07:55:11;;;;;;;19.98;5.95;;;14.10;77.30;;;;;;5035078;28;20042;-80
2023/05/25 07:57:36;;;;;;;16.88;5.82;;;14.20;77.30;;;;;;5032110;28;20077;-80
2023/05/25 08:00:09;;;;;;;17.35;5.38;;;14.20;77.30;;;;;;5015013;28;20417;-80
2023/05/25 08:02:35;;;;;;;16.92;5.82;;;14.30;76.90;;;;;;5015757;28;20073;-79
2023/05/25 08:05:04;;;;;;;16.40;6.45;;;14.30;76.40;;;;;;5031746;28;20481;-79
2023/05/25 08:07:31;;;;;;;17.90;5.80;;;14.30;76.70;;;;;;4999099;28;20049;-79
2023/05/25 08:09:57;;;;;;;20.00;5.32;;;14.40;76.40;;;;;;5015110;28;20045;-79
2023/05/25 08:12:23;;;;;;;26.30;7.00;;;14.50;76.80;;;;;;4998181;28;20053;-79
2023/05/25 08:14:49;;;;;;;18.48;4.90;;;14.50;75.50;;;;;;5014656;28;20073;-78
2023/05/25 08:17:15;;;;;;;23.95;5.63;;;14.30;74.60;;;;;;5013564;28;20046;-78
2023/05/25 08:19:41;;;;;;;19.75;5.20;;;14.30;74.10;;;;;;5015310;28;20041;-78
2023/05/25 08:22:06;;;;;;;22.55;7.13;;;14.40;73.60;;;;;;5014974;28;20478;-79
2023/05/25 08:24:32;;;;;;;21.10;5.25;;;14.50;74.10;;;;;;4998881;28;20065;-78
2023/05/25 08:26:58;;;;;;;19.25;5.85;;;14.60;73.90;;;;;;5014515;28;20538;-78
2023/05/25 08:29:23;;;;;;;20.90;5.45;;;14.70;72.70;;;;;;5014582;28;20486;-78
2023/05/25 08:31:50;;;;;;;21.38;5.85;;;14.80;71.30;;;;;;5014600;28;20133;-78
2023/05/25 08:34:16;;;;;;;17.30;5.07;;;14.90;70.40;;;;;;5014724;28;20050;-78
2023/05/25 08:36:41;;;;;;;19.05;4.00;;;14.90;71.40;;;;;;5030629;28;20072;-78
2023/05/25 08:39:08;;;;;;;17.65;5.05;;;15.00;70.80;;;;;;5013746;28;20406;-78
2023/05/25 08:41:42;;;;;;;21.70;5.32;;;15.00;69.60;;;;;;5014199;28;20078;-79
2023/05/25 08:44:08;;;;;;;;;;;15.00;69.70;;;;;;5015142;28;20050;-79
2023/05/25 08:46:34;;;;;;;23.05;6.07;;;15.10;68.80;;;;;;4998107;28;19944;-79
2023/05/25 08:49:11;;;;;;;17.50;4.70;;;15.10;68.70;;;;;;5031012;28;20046;-78
2023/05/25 08:51:40;;;;;;;13.60;4.32;;;15.00;68.20;;;;;;5030217;28;20046;-79
2023/05/25 08:54:12;;;;;;;17.55;4.20;;;15.00;67.50;;;;;;5014002;28;20042;-78
2023/05/25 08:56:51;;;;;;;19.98;5.38;;;15.00;68.40;;;;;;5039287;28;20068;-78
2023/05/25 08:59:47;;;;;;;18.00;4.47;;;15.20;68.80;;;;;;5033544;28;20049;-79
2023/05/25 09:02:25;;;;;;;19.20;5.38;;;15.40;67.50;;;;;;5033793;28;20045;-78
2023/05/25 09:04:51;;;;;;;18.85;5.75;;;15.40;66.50;;;;;;5033617;28;20048;-79
2023/05/25 09:07:18;;;;;;;18.70;4.50;;;15.50;65.00;;;;;;5033305;28;20128;-79
2023/05/25 09:09:45;;;;;;;15.73;3.95;;;15.50;64.70;;;;;;5017574;28;20128;-79
2023/05/25 09:12:11;;;;;;;16.65;4.10;;;15.50;64.40;;;;;;5033815;28;20494;-80
2023/05/25 09:14:44;;;;;;;21.08;5.40;;;15.60;63.40;;;;;;5017479;28;20060;-80
2023/05/25 09:17:13;;;;;;;18.88;4.82;;;15.60;63.30;;;;;;5033330;28;20494;-78
2023/05/25 09:19:39;;;;;;;19.25;5.40;;;15.60;64.70;;;;;;5017632;28;20033;-78
2023/05/25 09:22:05;;;;;;;16.20;4.95;;;15.80;66.10;;;;;;5033467;28;20056;-79
2023/05/25 09:24:31;;;;;;;16.90;4.30;;;15.90;65.40;;;;;;5033084;28;20037;-79
2023/05/25 09:26:57;;;;;;;15.95;4.03;;;16.00;61.70;;;;;;5033730;28;20390;-79
2023/05/25 09:29:23;;;;;;;18.65;4.88;;;16.00;61.20;;;;;;5016941;28;20045;-79
2023/05/25 09:31:49;;;;;;;16.90;5.00;;;15.90;63.20;;;;;;5017283;28;20048;-80
2023/05/25 09:34:15;;;;;;;17.25;4.90;;;15.80;62.60;;;;;;5033478;28;20406;-80
2023/05/25 09:36:40;;;;;;;19.90;4.88;;;15.90;63.40;;;;;;5033410;28;20037;-80
2023/05/25 09:39:11;;;;;;;16.95;5.05;;;16.00;63.20;;;;;;5033544;28;20029;-80
2023/05/25 09:41:39;;;;;;;19.17;4.82;;;16.10;62.20;;;;;;5033502;28;20453;-79
2023/05/25 09:44:05;;;;;;;15.00;4.93;;;16.00;61.30;;;;;;5032972;28;20053;-79
2023/05/25 09:46:35;;;;;;;20.67;5.90;;;16.10;61.40;;;;;;5032656;28;20443;-80
2023/05/25 09:49:02;;;;;;;18.30;4.82;;;16.10;61.70;;;;;;5032977;28;20080;-80
2023/05/25 09:51:31;;;;;;;16.17;5.80;;;16.20;61.60;;;;;;5032843;28;20076;-80
2023/05/25 09:54:01;;;;;;;17.23;4.43;;;16.30;61.80;;;;;;5033258;28;20041;-79
2023/05/25 09:56:29;;;;;;;15.40;5.05;;;16.30;60.20;;;;;;5000344;28;20081;-79
2023/05/25 09:58:56;;;;;;;17.25;4.80;;;16.40;61.60;;;;;;5032806;28;20045;-79
2023/05/25 10:01:22;;;;;;;16.35;4.63;;;16.50;61.40;;;;;;5033543;28;20048;-80
2023/05/25 10:03:49;;;;;;;16.40;4.95;;;16.50;61.60;;;;;;5032662;28;20075;-77
2023/05/25 10:06:16;;;;;;;15.98;4.38;;;16.40;61.70;;;;;;5032953;28;20512;-79
2023/05/25 10:08:44;;;;;;;20.20;4.93;;;16.40;61.50;;;;;;5033020;28;20041;-79
2023/05/25 10:11:13;;;;;;;19.45;4.40;;;16.50;60.10;;;;;;5016797;28;20041;-78
2023/05/25 10:13:39;;;;;;;21.58;4.35;;;16.40;59.30;;;;;;5016603;28;20069;-80
2023/05/25 10:16:08;;;;;;;14.50;4.45;;;16.40;60.10;;;;;;5016244;28;20045;-80
2023/05/25 10:18:36;;;;;;;17.52;5.38;;;16.50;61.00;;;;;;5033404;28;20394;-79
2023/05/25 10:21:03;;;;;;;22.95;6.05;;;16.50;61.20;;;;;;5033018;28;20099;-80
2023/05/25 10:23:56;;;;;;;19.05;5.00;;;16.70;61.20;;;;;;5016904;28;20049;-80
2023/05/25 10:26:26;;;;;;;13.45;4.50;;;16.80;60.40;;;;;;5032867;28;20101;-79
2023/05/25 10:28:59;;;;;;;16.98;4.93;;;16.80;60.50;;;;;;5032863;28;20475;-81
2023/05/25 10:31:28;;;;;;;19.80;5.82;;;16.80;61.00;;;;;;5032667;28;20049;-80
2023/05/25 10:33:55;;;;;;;20.95;4.82;;;16.70;61.20;;;;;;5033265;28;20033;-79
2023/05/25 10:36:22;;;;;;;19.27;5.15;;;16.70;60.50;;;;;;5018853;28;20044;-79
2023/05/25 10:38:50;;;;;;;20.30;5.53;;;16.60;60.80;;;;;;5020204;28;20045;-78
2023/05/25 10:41:18;;;;;;;22.25;7.90;;;16.60;60.30;;;;;;5036800;28;20133;-80
2023/05/25 10:43:44;;;;;;;23.13;5.30;;;16.60;61.70;;;;;;5037026;28;20128;-80
2023/05/25 10:46:11;;;;;;;22.10;5.93;;;16.80;61.50;;;;;;5036559;28;20393;-79
2023/05/25 10:48:38;;;;;;;20.38;5.72;;;16.80;60.50;;;;;;5036071;28;20080;-79
2023/05/25 10:51:05;;;;;;;16.90;4.53;;;16.70;60.20;;;;;;5036450;28;20187;-79
2023/05/25 10:53:31;;;;;;;22.52;5.43;;;16.80;60.70;;;;;;5020380;28;20168;-79
2023/05/25 10:56:05;;;;;;;18.77;5.97;;;17.00;62.10;;;;;;5004736;28;20515;-78
2023/05/25 10:58:31;;;;;;;;;;;17.20;60.40;;;;;;5024009;28;20045;-80
2023/05/25 11:01:06;;;;;;;21.58;5.00;;;17.20;60.80;;;;;;5022868;28;19917;-79
2023/05/25 11:04:10;;;;;;;19.48;5.75;;;17.30;60.70;;;;;;5040359;28;20385;-79
2023/05/25 11:06:36;;;;;;;16.80;5.30;;;17.40;59.10;;;;;;5032683;28;20543;-80
2023/05/25 11:09:02;;;;;;;17.48;4.60;;;17.30;59.70;;;;;;5039413;28;20052;-78
2023/05/25 11:11:46;;;;;;;19.55;6.05;;;17.00;60.00;;;;;;5022605;28;20072;-79
2023/05/25 11:14:34;;;;;;;17.63;4.97;;;17.00;61.50;;;;;;5022641;28;20516;-80
2023/05/25 11:17:11;;;;;;;17.52;4.85;;;17.20;60.10;;;;;;5038991;28;20344;-80
2023/05/25 11:20:01;;;;;;;19.52;5.57;;;17.40;60.10;;;;;;5039663;28;20128;-79
2023/05/25 11:22:34;;;;;;;18.58;5.10;;;17.30;59.20;;;;;;5039873;28;20477;-79
2023/05/25 11:25:01;;;;;;;23.90;6.35;;;17.40;60.70;;;;;;5039403;28;20036;-77
2023/05/25 11:27:29;;;;;;;22.13;5.18;;;17.50;60.20;;;;;;5038677;28;20107;-77
2023/05/25 11:29:57;;;;;;;23.02;5.10;;;17.60;60.00;;;;;;5039097;28;20045;-80
2023/05/25 11:32:24;;;;;;;24.77;6.45;;;17.70;59.50;;;;;;5038470;28;20077;-79
2023/05/25 11:34:52;;;;;;;19.55;6.07;;;17.70;58.50;;;;;;5038912;28;20037;-80
2023/05/25 11:37:20;;;;;;;17.35;5.28;;;17.60;58.80;;;;;;5039014;28;20119;-79
2023/05/25 11:39:52;;;;;;;15.98;5.75;;;17.50;59.10;;;;;;5038726;28;20045;-79
2023/05/25 11:42:23;;;;;;;22.33;6.30;;;17.30;59.30;;;;;;5039118;28;20052;-79
2023/05/25 11:44:49;;;;;;;17.33;5.15;;;17.10;60.30;;;;;;5039090;28;20511;-81
2023/05/25 11:47:21;;;;;;;17.10;4.90;;;17.00;61.10;;;;;;5038325;28;20516;-78
2023/05/25 11:49:48;;;;;;;18.60;5.55;;;17.00;59.80;;;;;;5039275;28;20080;-79
2023/05/25 11:52:16;;;;;;;15.48;6.18;;;17.20;60.70;;;;;;5039280;28;20052;-79
2023/05/25 11:54:42;;;;;;;18.80;5.72;;;17.40;60.90;;;;;;5038766;28;20037;-79
2023/05/25 11:57:23;;;;;;;19.05;6.05;;;17.40;61.10;;;;;;5038233;28;20053;-80
2023/05/25 11:59:54;;;;;;;27.27;7.05;;;17.40;61.90;;;;;;5038029;28;20047;-79
2023/05/25 12:02:21;;;;;;;27.65;6.72;;;17.40;61.80;;;;;;5037882;28;20045;-79
2023/05/25 12:04:56;;;;;;;22.23;6.43;;;17.50;61.70;;;;;;5021551;28;20083;-79
2023/05/25 12:07:22;;;;;;;23.90;6.20;;;17.50;59.30;;;;;;5038865;28;20044;-79
2023/05/25 12:09:48;;;;;;;23.92;6.13;;;17.50;59.80;;;;;;5022278;28;20047;-79
2023/05/25 12:12:13;;;;;;;18.92;6.00;;;17.50;59.80;;;;;;5005617;28;20382;-79
2023/05/25 12:14:49;;;;;;;17.77;5.38;;;17.40;59.70;;;;;;5021956;28;20051;-80
2023/05/25 12:17:20;;;;;;;21.63;5.22;;;17.40;59.40;;;;;;5038599;28;20048;-79
2023/05/25 12:19:46;;;;;;;19.30;5.32;;;17.70;58.00;;;;;;5038336;28;20041;-78
2023/05/25 12:22:12;;;;;;;21.58;5.60;;;17.90;58.90;;;;;;5022372;28;20053;-78
2023/05/25 12:24:39;;;;;;;17.85;5.22;;;18.00;58.50;;;;;;5038158;28;20485;-80
2023/05/25 12:27:15;;;;;;;16.92;5.82;;;17.90;57.80;;;;;;5022498;28;20078;-78
2023/05/25 12:29:48;;;;;;;18.30;5.07;;;17.90;56.10;;;;;;5038094;28;20049;-79
2023/05/25 12:32:14;;;;;;;22.75;6.63;;;18.00;57.30;;;;;;5038178;28;20041;-79
2023/05/25 12:34:40;;;;;;;20.40;6.18;;;18.00;56.80;;;;;;5037018;28;20044;-80
2023/05/25 12:37:19;;;;;;;18.50;6.13;;;17.90;57.20;;;;;;5021229;28;20469;-79